createdAt,value
2019-02-19T00:01:02.942Z,46.30
2019-02-19T00:04:10.502Z,47.50
2019-02-19T00:07:18.181Z,50.17
2019-02-19T00:10:25.774Z,46.60
2019-02-19T00:13:33.468Z,46.87
2019-02-19T00:16:40.928Z,44.33
2019-02-19T00:19:48.554Z,49.40
2019-02-19T00:22:56.175Z,46.90
2019-02-19T00:26:03.052Z,42.73
2019-02-19T00:29:10.714Z,40.47
2019-02-19T00:32:18.322Z,43.30
2019-02-19T00:35:26.179Z,42.40
2019-02-19T00:38:33.850Z,43.57
2019-02-19T00:41:41.595Z,47.07
2019-02-19T00:44:50.276Z,45.57
2019-02-19T00:47:58.292Z,45.60
2019-02-19T00:51:05.820Z,46.07
2019-02-19T00:54:13.340Z,44.33
2019-02-19T00:57:20.879Z,43.53
2019-02-19T01:00:28.426Z,41.57
2019-02-19T01:03:36.104Z,41.37
2019-02-19T01:06:43.668Z,43.40
2019-02-19T01:09:51.263Z,45.20
2019-02-19T01:12:58.768Z,44.83
2019-02-19T01:16:06.372Z,48.60
2019-02-19T01:19:13.864Z,48.47
2019-02-19T01:22:21.440Z,47.67
2019-02-19T01:25:29.240Z,44.60
2019-02-19T01:28:36.714Z,41.33
2019-02-19T01:31:44.388Z,42.20
2019-02-19T01:34:51.884Z,39.83
2019-02-19T01:37:59.440Z,37.70
2019-02-19T01:41:07.141Z,38.93
2019-02-19T01:44:14.665Z,35.63
2019-02-19T01:47:22.288Z,34.83
2019-02-19T01:50:29.904Z,33.43
2019-02-19T01:53:37.434Z,32.33
2019-02-19T01:56:45.084Z,31.50
2019-02-19T01:59:52.706Z,31.33
2019-02-19T02:03:00.230Z,28.73
2019-02-19T02:06:07.786Z,29.47
2019-02-19T02:09:15.470Z,27.53
2019-02-19T02:12:23.792Z,28.70
2019-02-19T02:15:31.638Z,25.73
2019-02-19T02:18:39.191Z,24.73
2019-02-19T02:21:47.744Z,27.67
2019-02-19T02:24:55.266Z,26.90
2019-02-19T02:28:02.766Z,29.17
2019-02-19T02:31:10.461Z,29.47
2019-02-19T02:34:18.063Z,28.17
2019-02-19T02:37:25.574Z,27.93
2019-02-19T02:40:33.168Z,30.50
2019-02-19T02:43:40.705Z,30.00
2019-02-19T02:46:48.282Z,30.30
2019-02-19T02:49:55.757Z,35.53
2019-02-19T02:53:03.286Z,53.63
2019-02-19T02:56:10.843Z,37.83
2019-02-19T02:59:18.319Z,34.23
2019-02-19T03:02:25.833Z,34.07
2019-02-19T03:05:33.639Z,34.10
2019-02-19T03:08:43.192Z,32.30
2019-02-19T03:11:50.974Z,41.57
2019-02-19T03:14:58.971Z,44.63
2019-02-19T03:18:06.751Z,38.30
2019-02-19T03:21:14.224Z,33.17
2019-02-19T03:24:21.845Z,29.13
2019-02-19T03:27:31.058Z,31.00
2019-02-19T03:30:38.853Z,28.50
2019-02-19T03:33:47.558Z,25.57
2019-02-19T03:36:55.432Z,28.50
2019-02-19T03:40:03.028Z,27.13
2019-02-19T03:43:11.329Z,27.00
2019-02-19T03:46:19.149Z,27.30
2019-02-19T03:49:27.399Z,28.20
2019-02-19T03:52:36.159Z,28.90
2019-02-19T03:55:43.911Z,30.50
2019-02-19T03:58:51.944Z,29.93
2019-02-19T04:01:59.765Z,28.80
2019-02-19T04:05:07.527Z,30.90
2019-02-19T04:08:15.519Z,31.50
2019-02-19T04:11:23.366Z,31.33
2019-02-19T04:14:31.212Z,29.50
2019-02-19T04:17:38.729Z,33.40
2019-02-19T04:20:46.630Z,34.57
2019-02-19T04:23:54.471Z,39.40
2019-02-19T04:27:02.145Z,31.70
2019-02-19T04:30:12.348Z,30.00
2019-02-19T04:33:19.890Z,30.90
2019-02-19T04:36:27.493Z,32.27
2019-02-19T04:39:35.294Z,33.67
2019-02-19T04:42:42.967Z,34.13
2019-02-19T04:45:50.545Z,31.13
2019-02-19T04:48:58.117Z,35.60
2019-02-19T04:52:05.635Z,32.40
2019-02-19T04:55:16.515Z,30.70
2019-02-19T04:58:24.086Z,33.10
2019-02-19T05:01:32.002Z,36.70
2019-02-19T05:04:39.593Z,38.13
2019-02-19T05:07:47.131Z,38.07
2019-02-19T05:10:54.691Z,38.63
2019-02-19T05:14:02.347Z,39.40
2019-02-19T05:17:10.997Z,41.60
2019-02-19T05:20:18.650Z,47.27
2019-02-19T05:23:26.162Z,41.67
2019-02-19T05:26:33.668Z,36.83
2019-02-19T05:29:41.668Z,35.30
2019-02-19T05:32:49.498Z,33.23
2019-02-19T05:35:58.217Z,32.30
2019-02-19T05:39:07.921Z,32.17
2019-02-19T05:42:15.455Z,33.07
2019-02-19T05:45:22.993Z,33.53
2019-02-19T05:48:30.579Z,33.60
2019-02-19T05:51:38.103Z,30.47
2019-02-19T05:54:45.693Z,31.23
2019-02-19T05:57:53.446Z,32.13
2019-02-19T06:01:01.031Z,30.40
2019-02-19T06:04:09.556Z,29.70
2019-02-19T06:07:17.116Z,30.40
2019-02-19T06:10:24.803Z,32.70
2019-02-19T06:13:32.445Z,32.63
2019-02-19T06:16:40.487Z,31.60
2019-02-19T06:19:48.179Z,33.20
2019-02-19T06:22:55.721Z,29.67
2019-02-19T06:26:03.331Z,30.97
2019-02-19T06:29:10.965Z,29.93
2019-02-19T06:32:18.479Z,30.67
2019-02-19T06:35:26.164Z,32.23
2019-02-19T06:38:33.952Z,31.90
2019-02-19T06:41:41.463Z,34.67
2019-02-19T06:44:49.179Z,37.37
2019-02-19T06:47:56.706Z,36.37
2019-02-19T06:51:04.187Z,41.20
2019-02-19T06:54:11.696Z,41.60
2019-02-19T06:57:19.242Z,35.90
2019-02-19T07:00:26.748Z,34.90
2019-02-19T07:03:38.537Z,36.67
2019-02-19T07:06:46.195Z,34.60
2019-02-19T07:09:53.777Z,38.90
2019-02-19T07:13:01.323Z,56.57
2019-02-19T07:16:08.945Z,62.17
2019-02-19T07:19:16.533Z,54.17
2019-02-19T07:22:24.351Z,52.90
2019-02-19T07:25:32.700Z,41.63
2019-02-19T07:28:40.927Z,37.20
2019-02-19T07:31:48.717Z,38.80
2019-02-19T07:34:57.579Z,38.93
2019-02-19T07:38:05.818Z,40.00
2019-02-19T07:41:13.583Z,41.67
2019-02-19T07:44:21.168Z,37.00
2019-02-19T07:47:29.220Z,36.50
2019-02-19T07:50:37.404Z,36.27
2019-02-19T07:53:45.461Z,47.00
2019-02-19T07:56:53.814Z,34.83
2019-02-19T08:00:01.804Z,35.97
2019-02-19T08:03:09.507Z,33.60
2019-02-19T08:06:17.863Z,31.70
2019-02-19T08:09:25.677Z,31.60
2019-02-19T08:12:33.673Z,31.87
2019-02-19T08:15:41.328Z,31.03
2019-02-19T08:18:49.169Z,28.67
2019-02-19T08:21:57.326Z,31.23
2019-02-19T08:25:05.657Z,32.20
2019-02-19T08:28:13.307Z,34.70
2019-02-19T08:31:21.377Z,35.30
2019-02-19T08:34:29.107Z,32.60
2019-02-19T08:37:36.934Z,35.40
2019-02-19T08:40:45.023Z,34.63
2019-02-19T08:43:53.123Z,36.07
2019-02-19T08:47:01.168Z,40.77
2019-02-19T08:50:10.446Z,37.00
2019-02-19T08:53:18.099Z,37.33
2019-02-19T08:56:25.752Z,37.87
2019-02-19T08:59:33.524Z,34.83
2019-02-19T09:02:41.159Z,42.00
2019-02-19T09:05:48.727Z,37.57
2019-02-19T09:08:56.320Z,40.37
2019-02-19T09:12:03.928Z,34.57
2019-02-19T09:15:12.204Z,42.80
2019-02-19T09:18:19.944Z,37.50
2019-02-19T09:21:27.495Z,38.40
2019-02-19T09:24:37.333Z,33.63
2019-02-19T09:27:44.938Z,32.13
2019-02-19T09:30:52.468Z,39.63
2019-02-19T09:34:00.503Z,43.40
2019-02-19T09:37:08.079Z,43.47
2019-02-19T09:40:15.643Z,38.80
2019-02-19T09:43:23.534Z,38.43
2019-02-19T09:46:31.202Z,36.53
2019-02-19T09:49:38.871Z,39.67
2019-02-19T09:52:46.550Z,36.67
2019-02-19T09:55:54.139Z,37.03
2019-02-19T09:59:03.510Z,35.53
2019-02-19T10:02:11.100Z,39.17
2019-02-19T10:05:18.672Z,34.70
2019-02-19T10:08:26.346Z,33.00
2019-02-19T10:11:34.024Z,36.73
2019-02-19T10:14:41.754Z,34.70
2019-02-19T10:17:49.301Z,34.80
2019-02-19T10:20:56.877Z,37.80
2019-02-19T10:24:04.429Z,34.50
2019-02-19T10:27:12.039Z,33.20
2019-02-19T10:30:20.152Z,34.17
2019-02-19T10:33:27.708Z,31.57
2019-02-19T10:36:35.393Z,27.90
2019-02-19T10:39:43.069Z,32.17
2019-02-19T10:42:52.293Z,29.10
2019-02-19T10:46:00.011Z,30.00
2019-02-19T10:49:07.861Z,30.83
2019-02-19T10:52:15.608Z,30.90
2019-02-19T10:55:23.583Z,34.87
2019-02-19T10:58:31.149Z,31.97
2019-02-19T11:01:38.872Z,30.60
2019-02-19T11:04:46.387Z,38.20
2019-02-19T11:07:53.936Z,31.83
2019-02-19T11:11:01.584Z,35.50
2019-02-19T11:14:09.236Z,37.50
2019-02-19T11:17:16.815Z,30.67
2019-02-19T11:20:24.927Z,33.80
2019-02-19T11:23:33.764Z,57.23
2019-02-19T11:26:41.541Z,34.97
2019-02-19T11:29:49.116Z,37.60
2019-02-19T11:32:56.872Z,41.00
2019-02-19T11:36:04.508Z,40.77
2019-02-19T11:39:13.322Z,30.87
2019-02-19T11:42:20.866Z,30.47
2019-02-19T11:45:28.499Z,31.43
2019-02-19T11:48:37.176Z,31.73
2019-02-19T11:51:44.911Z,34.10
2019-02-19T11:54:52.405Z,32.30
2019-02-19T11:57:59.942Z,29.17
2019-02-19T12:01:07.759Z,34.60
2019-02-19T12:04:15.293Z,35.23
2019-02-19T12:07:23.169Z,33.43
2019-02-19T12:10:30.794Z,28.03
2019-02-19T12:13:38.492Z,37.20
2019-02-19T12:16:46.431Z,38.27
2019-02-19T12:19:54.672Z,32.10
2019-02-19T12:23:02.673Z,37.23
2019-02-19T12:26:10.365Z,38.10
2019-02-19T12:29:18.934Z,36.37
2019-02-19T12:32:26.484Z,39.07
2019-02-19T12:35:34.022Z,39.70
2019-02-19T12:38:41.752Z,34.27
2019-02-19T12:41:50.279Z,37.67
2019-02-19T12:44:58.320Z,37.67
2019-02-19T12:48:06.203Z,39.43
2019-02-19T12:51:14.833Z,40.53
2019-02-19T12:54:22.418Z,48.60
2019-02-19T12:57:30.214Z,45.17
2019-02-19T13:00:38.598Z,41.80
2019-02-19T13:03:46.182Z,42.67
2019-02-19T13:06:54.252Z,50.10
2019-02-19T13:10:03.274Z,47.33
2019-02-19T13:13:12.004Z,45.03
2019-02-19T13:16:19.691Z,40.37
2019-02-19T13:19:27.249Z,46.13
2019-02-19T13:22:36.766Z,41.90
2019-02-19T13:25:44.495Z,49.30
2019-02-19T13:28:52.230Z,41.93
2019-02-19T13:31:59.850Z,40.93
2019-02-19T13:35:08.062Z,38.43
2019-02-19T13:38:15.589Z,38.07
2019-02-19T13:41:23.345Z,35.13
2019-02-19T13:44:31.330Z,38.00
2019-02-19T13:47:39.066Z,41.70
2019-02-19T13:50:46.779Z,37.13
2019-02-19T13:54:04.400Z,39.60
2019-02-19T13:57:12.057Z,37.40
2019-02-19T14:00:21.958Z,39.23
2019-02-19T14:03:29.552Z,41.20
2019-02-19T14:06:37.318Z,42.67
2019-02-19T14:09:45.002Z,45.23
2019-02-19T14:12:52.560Z,41.67
2019-02-19T14:16:25.084Z,44.00
2019-02-19T14:19:56.301Z,37.83
2019-02-19T14:23:40.902Z,39.30
2019-02-19T14:27:07.275Z,44.50
2019-02-19T14:30:29.762Z,42.87
2019-02-19T14:34:12.367Z,41.30
2019-02-19T14:37:37.531Z,45.83
2019-02-19T14:41:03.031Z,40.63
2019-02-19T14:44:32.514Z,42.13
2019-02-19T14:48:05.218Z,45.10
2019-02-19T14:51:31.544Z,43.20
2019-02-19T14:55:06.794Z,37.90
2019-02-19T14:58:36.000Z,39.43
2019-02-19T15:02:01.840Z,44.73
2019-02-19T15:05:34.674Z,49.30
2019-02-19T15:09:00.286Z,38.10
2019-02-19T15:12:29.677Z,47.20
2019-02-19T15:15:53.865Z,53.80
2019-02-19T15:19:19.615Z,57.07
2019-02-19T15:22:50.850Z,54.03
2019-02-19T15:26:12.282Z,50.03
2019-02-19T15:29:44.885Z,49.77
2019-02-19T15:33:09.888Z,51.87
2019-02-19T15:36:54.402Z,58.70
2019-02-19T15:40:27.232Z,60.10
2019-02-19T15:43:56.660Z,75.47
2019-02-19T15:47:33.526Z,71.07
2019-02-19T15:50:58.800Z,60.67
2019-02-19T15:54:25.218Z,59.27
2019-02-19T15:57:50.532Z,61.13
2019-02-19T16:01:35.402Z,60.30
2019-02-19T16:04:57.804Z,75.10
2019-02-19T16:08:18.246Z,75.13
2019-02-19T16:11:54.352Z,68.63
2019-02-19T16:15:12.100Z,71.13
2019-02-19T16:18:49.151Z,66.30
2019-02-19T16:22:18.095Z,71.85
2019-02-19T16:25:47.609Z,65.70
2019-02-19T16:29:29.073Z,62.90
2019-02-19T16:32:49.763Z,68.57
2019-02-19T16:36:28.197Z,64.03
2019-02-19T16:39:52.278Z,68.30
2019-02-19T16:43:21.796Z,90.47
2019-02-19T16:46:44.854Z,91.37
2019-02-19T16:50:07.275Z,94.83
2019-02-19T16:53:21.662Z,94.73
2019-02-19T16:56:44.789Z,103.03
2019-02-19T17:00:09.630Z,78.20
2019-02-19T17:03:45.876Z,68.50
2019-02-19T17:07:15.274Z,81.90
2019-02-19T17:10:41.657Z,90.20
2019-02-19T17:14:11.717Z,91.07
2019-02-19T17:17:41.192Z,106.07
2019-02-19T17:20:56.246Z,111.00
2019-02-19T17:24:22.616Z,98.83
2019-02-19T17:28:07.329Z,105.17
2019-02-19T17:31:43.414Z,94.07
2019-02-19T17:35:12.716Z,98.30
2019-02-19T17:38:42.151Z,112.10
2019-02-19T17:41:59.052Z,125.30
2019-02-19T17:45:25.584Z,119.40
2019-02-19T17:48:50.542Z,132.15
2019-02-19T17:52:10.684Z,117.77
2019-02-19T17:55:35.711Z,105.93
2019-02-19T17:59:01.731Z,100.30
2019-02-19T18:02:19.520Z,85.00
2019-02-19T18:05:55.041Z,108.00
2019-02-19T18:09:20.476Z,111.57
2019-02-19T18:12:49.749Z,115.60
2019-02-19T18:16:10.937Z,107.20
2019-02-19T18:19:18.459Z,106.43
2019-02-19T18:22:26.061Z,114.33
2019-02-19T18:25:35.367Z,121.10
2019-02-19T18:28:42.975Z,87.23
2019-02-19T18:31:50.716Z,93.47
2019-02-19T18:35:01.372Z,82.67
2019-02-19T18:38:10.078Z,90.03
2019-02-19T18:41:17.906Z,79.67
2019-02-19T18:44:27.180Z,81.47
2019-02-19T18:47:34.704Z,85.10
2019-02-19T18:50:42.298Z,87.93
2019-02-19T18:53:50.093Z,91.47
2019-02-19T18:56:57.634Z,95.43
2019-02-19T19:00:05.791Z,104.10
2019-02-19T19:03:13.354Z,98.40
2019-02-19T19:06:21.000Z,80.13
2019-02-19T19:09:28.559Z,93.57
2019-02-19T19:12:36.103Z,81.37
2019-02-19T19:15:43.827Z,79.50
2019-02-19T19:18:51.557Z,87.47
2019-02-19T19:21:59.194Z,75.77
2019-02-19T19:25:06.843Z,83.33
2019-02-19T19:28:14.600Z,76.13
2019-02-19T19:31:23.236Z,82.50
2019-02-19T19:34:30.766Z,81.27
2019-02-19T19:37:38.315Z,84.20
2019-02-19T19:40:45.913Z,93.60
2019-02-19T19:43:53.596Z,85.63
2019-02-19T19:47:01.241Z,83.87
2019-02-19T19:50:09.291Z,105.53
2019-02-19T19:53:16.969Z,106.50
2019-02-19T19:56:25.600Z,91.47
2019-02-19T19:59:33.390Z,101.93
2019-02-19T20:02:40.951Z,99.97
2019-02-19T20:05:49.504Z,106.53
2019-02-19T20:08:57.148Z,115.80
2019-02-19T20:12:04.714Z,109.43
2019-02-19T20:15:12.283Z,105.13
2019-02-19T20:18:19.945Z,102.17
2019-02-19T20:21:27.576Z,101.10
2019-02-19T20:24:36.159Z,102.43
2019-02-19T20:27:45.280Z,93.77
2019-02-19T20:30:52.835Z,98.70
2019-02-19T20:34:01.775Z,97.20
2019-02-19T20:37:09.538Z,94.37
2019-02-19T20:40:17.143Z,90.37
2019-02-19T20:43:24.780Z,80.67
2019-02-19T20:46:32.385Z,82.50
2019-02-19T20:49:41.141Z,82.50
2019-02-19T20:52:48.774Z,86.00
2019-02-19T20:55:56.845Z,75.70
2019-02-19T20:59:04.449Z,78.80
2019-02-19T21:02:12.801Z,83.63
2019-02-19T21:05:20.952Z,80.80
2019-02-19T21:08:28.641Z,60.67
2019-02-19T21:11:36.181Z,61.57
2019-02-19T21:14:43.906Z,66.80
2019-02-19T21:17:52.060Z,59.40
2019-02-19T21:20:59.735Z,63.97
2019-02-19T21:24:07.396Z,55.57
2019-02-19T21:27:15.114Z,74.10
2019-02-19T21:30:22.822Z,69.30
2019-02-19T21:33:30.539Z,60.50
2019-02-19T21:36:38.103Z,48.60
2019-02-19T21:39:46.354Z,57.67
2019-02-19T21:42:54.079Z,57.10
2019-02-19T21:46:01.701Z,56.60
2019-02-19T21:49:09.585Z,53.03
2019-02-19T21:52:17.223Z,55.63
2019-02-19T21:55:24.782Z,64.13
2019-02-19T21:58:32.392Z,60.87
2019-02-19T22:01:40.079Z,52.73
2019-02-19T22:04:47.723Z,48.80
2019-02-19T22:07:55.342Z,50.10
2019-02-19T22:11:02.956Z,52.67
2019-02-19T22:14:12.058Z,53.47
2019-02-19T22:17:19.723Z,54.57
2019-02-19T22:20:40.524Z,58.60
2019-02-19T22:23:48.094Z,71.73
2019-02-19T22:26:55.859Z,50.63
2019-02-19T22:30:04.347Z,48.30
2019-02-19T22:33:12.049Z,43.70
2019-02-19T22:36:19.667Z,44.43
2019-02-19T22:39:27.443Z,45.90
2019-02-19T22:42:34.997Z,46.90
2019-02-19T22:45:42.619Z,46.60
2019-02-19T22:48:50.258Z,43.20
2019-02-19T22:51:57.885Z,44.67
2019-02-19T22:55:17.421Z,42.43
2019-02-19T22:58:25.223Z,43.47
2019-02-19T23:01:41.942Z,46.30
2019-02-19T23:04:49.945Z,46.80
2019-02-19T23:07:57.965Z,46.10
2019-02-19T23:11:06.018Z,43.50
2019-02-19T23:14:13.572Z,51.63
2019-02-19T23:17:21.163Z,51.30
2019-02-19T23:20:28.805Z,51.33
2019-02-19T23:23:36.431Z,48.10
2019-02-19T23:26:44.111Z,43.87
2019-02-19T23:29:52.861Z,43.27
2019-02-19T23:33:00.504Z,41.67
2019-02-19T23:36:27.900Z,42.80
2019-02-19T23:39:43.367Z,42.30
2019-02-19T23:42:44.663Z,45.77
2019-02-19T23:45:52.261Z,42.20
2019-02-19T23:48:59.755Z,43.50
2019-02-19T23:52:07.320Z,41.20
2019-02-19T23:55:15.062Z,38.27
2019-02-19T23:58:22.695Z,40.97
